sensor_id;sensor_type;location;lat;lon;timestamp;P1;durP1;ratioP1;P2;durP2;ratioP2
55037;SDS011;40937;53.594;10.034;2022-07-06T00:00:44;5.05;;;1.60;;
55037;SDS011;40937;53.594;10.034;2022-07-06T00:03:11;4.57;;;1.67;;
55037;SDS011;40937;53.594;10.034;2022-07-06T00:05:38;5.88;;;1.95;;
55037;SDS011;40937;53.594;10.034;2022-07-06T00:08:04;3.78;;;1.60;;
55037;SDS011;40937;53.594;10.034;2022-07-06T00:10:32;3.55;;;1.63;;
55037;SDS011;40937;53.594;10.034;2022-07-06T00:12:59;4.82;;;1.67;;
55037;SDS011;40937;53.594;10.034;2022-07-06T00:15:26;3.63;;;1.38;;
55037;SDS011;40937;53.594;10.034;2022-07-06T00:17:52;6.60;;;1.67;;
55037;SDS011;40937;53.594;10.034;2022-07-06T00:20:19;5.15;;;1.45;;
55037;SDS011;40937;53.594;10.034;2022-07-06T00:22:46;3.42;;;1.38;;
55037;SDS011;40937;53.594;10.034;2022-07-06T00:25:12;1.90;;;0.98;;
55037;SDS011;40937;53.594;10.034;2022-07-06T00:27:40;5.63;;;1.73;;
55037;SDS011;40937;53.594;10.034;2022-07-06T00:30:07;5.53;;;2.10;;
55037;SDS011;40937;53.594;10.034;2022-07-06T00:32:34;6.10;;;1.60;;
55037;SDS011;40937;53.594;10.034;2022-07-06T00:35:01;5.07;;;1.70;;
55037;SDS011;40937;53.594;10.034;2022-07-06T00:37:28;4.32;;;1.52;;
55037;SDS011;40937;53.594;10.034;2022-07-06T00:39:55;3.63;;;1.60;;
55037;SDS011;40937;53.594;10.034;2022-07-06T00:42:21;4.85;;;1.95;;
55037;SDS011;40937;53.594;10.034;2022-07-06T00:44:50;4.90;;;1.35;;
55037;SDS011;40937;53.594;10.034;2022-07-06T00:47:17;5.57;;;1.65;;
55037;SDS011;40937;53.594;10.034;2022-07-06T00:49:44;6.05;;;1.95;;
55037;SDS011;40937;53.594;10.034;2022-07-06T00:52:28;4.75;;;1.77;;
55037;SDS011;40937;53.594;10.034;2022-07-06T00:54:55;4.63;;;1.40;;
55037;SDS011;40937;53.594;10.034;2022-07-06T00:57:21;6.50;;;1.80;;
55037;SDS011;40937;53.594;10.034;2022-07-06T00:59:48;6.53;;;1.50;;
55037;SDS011;40937;53.594;10.034;2022-07-06T01:02:16;4.15;;;1.58;;
55037;SDS011;40937;53.594;10.034;2022-07-06T01:04:43;4.78;;;1.55;;
55037;SDS011;40937;53.594;10.034;2022-07-06T01:07:09;5.75;;;1.80;;
55037;SDS011;40937;53.594;10.034;2022-07-06T01:09:36;3.50;;;1.33;;
55037;SDS011;40937;53.594;10.034;2022-07-06T01:12:03;2.97;;;1.80;;
55037;SDS011;40937;53.594;10.034;2022-07-06T01:14:31;2.75;;;1.48;;
55037;SDS011;40937;53.594;10.034;2022-07-06T01:16:58;3.50;;;1.40;;
55037;SDS011;40937;53.594;10.034;2022-07-06T01:19:26;8.85;;;1.60;;
55037;SDS011;40937;53.594;10.034;2022-07-06T01:21:54;2.08;;;1.25;;
55037;SDS011;40937;53.594;10.034;2022-07-06T01:24:21;10.63;;;1.70;;
55037;SDS011;40937;53.594;10.034;2022-07-06T01:26:48;4.85;;;1.35;;
55037;SDS011;40937;53.594;10.034;2022-07-06T01:29:15;4.45;;;1.63;;
55037;SDS011;40937;53.594;10.034;2022-07-06T01:31:45;5.10;;;1.65;;
55037;SDS011;40937;53.594;10.034;2022-07-06T01:34:14;4.22;;;1.50;;
55037;SDS011;40937;53.594;10.034;2022-07-06T01:36:42;4.47;;;1.20;;
55037;SDS011;40937;53.594;10.034;2022-07-06T01:39:10;6.30;;;1.52;;
55037;SDS011;40937;53.594;10.034;2022-07-06T01:41:37;4.53;;;1.38;;
55037;SDS011;40937;53.594;10.034;2022-07-06T01:44:04;6.03;;;2.00;;
55037;SDS011;40937;53.594;10.034;2022-07-06T01:46:32;4.85;;;1.45;;
55037;SDS011;40937;53.594;10.034;2022-07-06T01:48:59;8.27;;;2.13;;
55037;SDS011;40937;53.594;10.034;2022-07-06T01:51:26;4.90;;;1.65;;
55037;SDS011;40937;53.594;10.034;2022-07-06T01:53:53;7.57;;;1.70;;
55037;SDS011;40937;53.594;10.034;2022-07-06T01:56:21;6.07;;;1.58;;
55037;SDS011;40937;53.594;10.034;2022-07-06T01:58:52;5.07;;;1.33;;
55037;SDS011;40937;53.594;10.034;2022-07-06T02:01:20;3.13;;;1.38;;
55037;SDS011;40937;53.594;10.034;2022-07-06T02:03:47;5.28;;;1.33;;
55037;SDS011;40937;53.594;10.034;2022-07-06T02:06:14;8.90;;;2.03;;
55037;SDS011;40937;53.594;10.034;2022-07-06T02:08:42;5.30;;;1.63;;
55037;SDS011;40937;53.594;10.034;2022-07-06T02:11:09;5.20;;;1.60;;
55037;SDS011;40937;53.594;10.034;2022-07-06T02:13:39;3.63;;;1.45;;
55037;SDS011;40937;53.594;10.034;2022-07-06T02:16:09;4.53;;;1.48;;
55037;SDS011;40937;53.594;10.034;2022-07-06T02:18:36;4.38;;;1.70;;
55037;SDS011;40937;53.594;10.034;2022-07-06T02:21:03;4.18;;;1.67;;
55037;SDS011;40937;53.594;10.034;2022-07-06T02:23:30;6.85;;;1.85;;
55037;SDS011;40937;53.594;10.034;2022-07-06T02:25:57;5.55;;;1.50;;
55037;SDS011;40937;53.594;10.034;2022-07-06T02:28:25;6.85;;;1.40;;
55037;SDS011;40937;53.594;10.034;2022-07-06T02:30:53;4.90;;;1.20;;
55037;SDS011;40937;53.594;10.034;2022-07-06T02:33:20;9.45;;;1.77;;
55037;SDS011;40937;53.594;10.034;2022-07-06T02:35:46;6.28;;;1.58;;
55037;SDS011;40937;53.594;10.034;2022-07-06T02:38:14;4.07;;;1.60;;
55037;SDS011;40937;53.594;10.034;2022-07-06T02:40:41;2.97;;;1.40;;
55037;SDS011;40937;53.594;10.034;2022-07-06T02:43:07;4.93;;;1.60;;
55037;SDS011;40937;53.594;10.034;2022-07-06T02:45:35;4.45;;;1.67;;
55037;SDS011;40937;53.594;10.034;2022-07-06T02:48:04;6.18;;;1.40;;
55037;SDS011;40937;53.594;10.034;2022-07-06T02:50:33;6.25;;;1.67;;
55037;SDS011;40937;53.594;10.034;2022-07-06T02:52:59;3.65;;;1.52;;
55037;SDS011;40937;53.594;10.034;2022-07-06T02:55:27;7.55;;;1.58;;
55037;SDS011;40937;53.594;10.034;2022-07-06T02:57:54;5.20;;;1.50;;
55037;SDS011;40937;53.594;10.034;2022-07-06T03:00:22;5.93;;;1.92;;
55037;SDS011;40937;53.594;10.034;2022-07-06T03:02:50;2.90;;;1.40;;
55037;SDS011;40937;53.594;10.034;2022-07-06T03:05:18;2.70;;;1.35;;
55037;SDS011;40937;53.594;10.034;2022-07-06T03:07:45;15.55;;;1.60;;
55037;SDS011;40937;53.594;10.034;2022-07-06T03:10:13;6.07;;;1.65;;
55037;SDS011;40937;53.594;10.034;2022-07-06T03:12:40;2.72;;;1.33;;
55037;SDS011;40937;53.594;10.034;2022-07-06T03:15:07;5.90;;;1.50;;
55037;SDS011;40937;53.594;10.034;2022-07-06T03:17:37;4.95;;;1.63;;
55037;SDS011;40937;53.594;10.034;2022-07-06T03:20:05;4.85;;;1.23;;
55037;SDS011;40937;53.594;10.034;2022-07-06T03:22:33;3.47;;;1.13;;
55037;SDS011;40937;53.594;10.034;2022-07-06T03:25:01;4.55;;;1.70;;
55037;SDS011;40937;53.594;10.034;2022-07-06T03:27:28;3.35;;;1.45;;
55037;SDS011;40937;53.594;10.034;2022-07-06T03:29:55;4.85;;;1.40;;
55037;SDS011;40937;53.594;10.034;2022-07-06T03:32:22;7.57;;;1.88;;
55037;SDS011;40937;53.594;10.034;2022-07-06T03:34:50;3.28;;;1.65;;
55037;SDS011;40937;53.594;10.034;2022-07-06T03:37:17;5.63;;;1.45;;
55037;SDS011;40937;53.594;10.034;2022-07-06T03:39:45;3.35;;;1.40;;
55037;SDS011;40937;53.594;10.034;2022-07-06T03:42:12;5.70;;;1.75;;
55037;SDS011;40937;53.594;10.034;2022-07-06T03:44:39;4.63;;;1.67;;
55037;SDS011;40937;53.594;10.034;2022-07-06T03:47:07;5.60;;;1.80;;
55037;SDS011;40937;53.594;10.034;2022-07-06T03:49:33;5.30;;;1.88;;
55037;SDS011;40937;53.594;10.034;2022-07-06T03:52:01;6.90;;;1.63;;
55037;SDS011;40937;53.594;10.034;2022-07-06T03:54:36;3.20;;;1.80;;
55037;SDS011;40937;53.594;10.034;2022-07-06T03:57:06;6.88;;;1.95;;
55037;SDS011;40937;53.594;10.034;2022-07-06T03:59:33;7.03;;;2.15;;
55037;SDS011;40937;53.594;10.034;2022-07-06T04:01:59;9.70;;;1.67;;
55037;SDS011;40937;53.594;10.034;2022-07-06T04:04:26;3.33;;;1.52;;
55037;SDS011;40937;53.594;10.034;2022-07-06T04:06:53;7.90;;;1.98;;
55037;SDS011;40937;53.594;10.034;2022-07-06T04:09:20;7.53;;;1.92;;
55037;SDS011;40937;53.594;10.034;2022-07-06T04:11:48;10.15;;;1.65;;
55037;SDS011;40937;53.594;10.034;2022-07-06T04:14:16;4.28;;;1.17;;
55037;SDS011;40937;53.594;10.034;2022-07-06T04:16:42;4.43;;;1.35;;
55037;SDS011;40937;53.594;10.034;2022-07-06T04:19:09;4.30;;;1.58;;
55037;SDS011;40937;53.594;10.034;2022-07-06T04:21:36;7.13;;;1.90;;
55037;SDS011;40937;53.594;10.034;2022-07-06T04:24:03;3.80;;;1.80;;
55037;SDS011;40937;53.594;10.034;2022-07-06T04:26:31;6.72;;;1.50;;
55037;SDS011;40937;53.594;10.034;2022-07-06T04:28:58;7.20;;;1.40;;
55037;SDS011;40937;53.594;10.034;2022-07-06T04:31:29;2.53;;;1.10;;
55037;SDS011;40937;53.594;10.034;2022-07-06T04:33:56;4.30;;;1.00;;
55037;SDS011;40937;53.594;10.034;2022-07-06T04:36:24;7.30;;;1.63;;
55037;SDS011;40937;53.594;10.034;2022-07-06T04:38:51;5.20;;;1.70;;
55037;SDS011;40937;53.594;10.034;2022-07-06T04:41:18;5.57;;;1.20;;
55037;SDS011;40937;53.594;10.034;2022-07-06T04:43:45;4.72;;;1.25;;
55037;SDS011;40937;53.594;10.034;2022-07-06T04:46:15;6.30;;;1.42;;
55037;SDS011;40937;53.594;10.034;2022-07-06T04:48:46;5.53;;;1.40;;
55037;SDS011;40937;53.594;10.034;2022-07-06T04:51:19;5.15;;;1.70;;
55037;SDS011;40937;53.594;10.034;2022-07-06T04:53:46;4.88;;;1.55;;
55037;SDS011;40937;53.594;10.034;2022-07-06T04:56:14;5.00;;;1.38;;
55037;SDS011;40937;53.594;10.034;2022-07-06T04:58:41;6.53;;;1.63;;
55037;SDS011;40937;53.594;10.034;2022-07-06T05:01:12;7.70;;;2.00;;
55037;SDS011;40937;53.594;10.034;2022-07-06T05:03:38;3.42;;;1.27;;
55037;SDS011;40937;53.594;10.034;2022-07-06T05:06:08;8.05;;;1.92;;
55037;SDS011;40937;53.594;10.034;2022-07-06T05:08:35;7.57;;;1.63;;
55037;SDS011;40937;53.594;10.034;2022-07-06T05:11:03;5.97;;;2.28;;
55037;SDS011;40937;53.594;10.034;2022-07-06T05:13:29;9.20;;;1.92;;
55037;SDS011;40937;53.594;10.034;2022-07-06T05:15:57;6.43;;;1.52;;
55037;SDS011;40937;53.594;10.034;2022-07-06T05:18:24;7.07;;;1.60;;
55037;SDS011;40937;53.594;10.034;2022-07-06T05:20:51;3.55;;;1.20;;
55037;SDS011;40937;53.594;10.034;2022-07-06T05:23:20;9.48;;;2.20;;
55037;SDS011;40937;53.594;10.034;2022-07-06T05:25:47;6.22;;;2.00;;
55037;SDS011;40937;53.594;10.034;2022-07-06T05:28:14;9.70;;;2.10;;
55037;SDS011;40937;53.594;10.034;2022-07-06T05:30:41;5.47;;;1.60;;
55037;SDS011;40937;53.594;10.034;2022-07-06T05:33:09;8.45;;;1.80;;
55037;SDS011;40937;53.594;10.034;2022-07-06T05:35:36;5.95;;;1.80;;
55037;SDS011;40937;53.594;10.034;2022-07-06T05:38:04;8.43;;;1.60;;
55037;SDS011;40937;53.594;10.034;2022-07-06T05:40:32;8.00;;;1.70;;
55037;SDS011;40937;53.594;10.034;2022-07-06T05:42:59;7.30;;;2.30;;
55037;SDS011;40937;53.594;10.034;2022-07-06T05:45:26;4.70;;;1.55;;
55037;SDS011;40937;53.594;10.034;2022-07-06T05:47:54;6.22;;;1.25;;
55037;SDS011;40937;53.594;10.034;2022-07-06T05:50:39;5.85;;;1.75;;
55037;SDS011;40937;53.594;10.034;2022-07-06T05:53:06;8.10;;;1.67;;
55037;SDS011;40937;53.594;10.034;2022-07-06T05:55:34;8.43;;;2.22;;
55037;SDS011;40937;53.594;10.034;2022-07-06T05:58:02;5.47;;;1.90;;
55037;SDS011;40937;53.594;10.034;2022-07-06T06:00:31;12.18;;;2.35;;
55037;SDS011;40937;53.594;10.034;2022-07-06T06:03:03;7.15;;;1.88;;
55037;SDS011;40937;53.594;10.034;2022-07-06T06:05:30;13.25;;;1.77;;
55037;SDS011;40937;53.594;10.034;2022-07-06T06:08:02;5.57;;;1.98;;
55037;SDS011;40937;53.594;10.034;2022-07-06T06:10:29;10.35;;;1.95;;
55037;SDS011;40937;53.594;10.034;2022-07-06T06:13:00;5.32;;;1.58;;
55037;SDS011;40937;53.594;10.034;2022-07-06T06:15:27;5.47;;;1.90;;
55037;SDS011;40937;53.594;10.034;2022-07-06T06:17:53;7.43;;;1.65;;
55037;SDS011;40937;53.594;10.034;2022-07-06T06:20:20;4.07;;;1.30;;
55037;SDS011;40937;53.594;10.034;2022-07-06T06:22:47;5.75;;;1.73;;
55037;SDS011;40937;53.594;10.034;2022-07-06T06:25:15;4.10;;;1.40;;
55037;SDS011;40937;53.594;10.034;2022-07-06T06:27:43;8.60;;;1.55;;
55037;SDS011;40937;53.594;10.034;2022-07-06T06:30:11;3.83;;;1.30;;
55037;SDS011;40937;53.594;10.034;2022-07-06T06:32:39;7.80;;;2.00;;
55037;SDS011;40937;53.594;10.034;2022-07-06T06:35:06;4.78;;;1.67;;
55037;SDS011;40937;53.594;10.034;2022-07-06T06:37:34;3.65;;;1.27;;
55037;SDS011;40937;53.594;10.034;2022-07-06T06:40:00;7.13;;;1.70;;
55037;SDS011;40937;53.594;10.034;2022-07-06T06:42:27;7.93;;;1.35;;
55037;SDS011;40937;53.594;10.034;2022-07-06T06:44:56;4.68;;;1.27;;
55037;SDS011;40937;53.594;10.034;2022-07-06T06:47:24;6.22;;;1.73;;
55037;SDS011;40937;53.594;10.034;2022-07-06T06:49:50;6.13;;;1.85;;
55037;SDS011;40937;53.594;10.034;2022-07-06T06:52:17;5.10;;;1.00;;
55037;SDS011;40937;53.594;10.034;2022-07-06T06:54:44;6.07;;;1.92;;
55037;SDS011;40937;53.594;10.034;2022-07-06T06:57:10;4.85;;;1.25;;
55037;SDS011;40937;53.594;10.034;2022-07-06T06:59:37;7.88;;;1.77;;
55037;SDS011;40937;53.594;10.034;2022-07-06T07:02:04;2.55;;;1.30;;
55037;SDS011;40937;53.594;10.034;2022-07-06T07:14:53;3.65;;;1.20;;
55037;SDS011;40937;53.594;10.034;2022-07-06T07:17:20;5.32;;;1.20;;
55037;SDS011;40937;53.594;10.034;2022-07-06T07:19:47;3.00;;;1.30;;
55037;SDS011;40937;53.594;10.034;2022-07-06T07:22:13;4.63;;;1.50;;
55037;SDS011;40937;53.594;10.034;2022-07-06T07:24:40;5.95;;;1.38;;
55037;SDS011;40937;53.594;10.034;2022-07-06T07:27:07;3.88;;;1.20;;
55037;SDS011;40937;53.594;10.034;2022-07-06T07:29:33;6.63;;;1.83;;
55037;SDS011;40937;53.594;10.034;2022-07-06T07:32:01;8.68;;;1.92;;
55037;SDS011;40937;53.594;10.034;2022-07-06T07:34:28;4.05;;;1.40;;
55037;SDS011;40937;53.594;10.034;2022-07-06T07:36:55;6.25;;;1.80;;
55037;SDS011;40937;53.594;10.034;2022-07-06T07:39:22;5.78;;;1.58;;
55037;SDS011;40937;53.594;10.034;2022-07-06T07:41:48;7.30;;;1.08;;
55037;SDS011;40937;53.594;10.034;2022-07-06T07:44:15;2.78;;;1.13;;
55037;SDS011;40937;53.594;10.034;2022-07-06T07:46:42;5.28;;;0.98;;
55037;SDS011;40937;53.594;10.034;2022-07-06T07:49:10;4.70;;;1.15;;
55037;SDS011;40937;53.594;10.034;2022-07-06T07:51:37;2.67;;;1.05;;
55037;SDS011;40937;53.594;10.034;2022-07-06T07:54:04;1.95;;;0.85;;
55037;SDS011;40937;53.594;10.034;2022-07-06T07:56:31;5.20;;;0.98;;
55037;SDS011;40937;53.594;10.034;2022-07-06T07:58:58;2.28;;;1.00;;
55037;SDS011;40937;53.594;10.034;2022-07-06T08:01:28;2.95;;;1.10;;
55037;SDS011;40937;53.594;10.034;2022-07-06T08:09:12;2.53;;;1.10;;
55037;SDS011;40937;53.594;10.034;2022-07-06T08:11:40;3.65;;;0.90;;
55037;SDS011;40937;53.594;10.034;2022-07-06T08:14:07;1.67;;;0.68;;
55037;SDS011;40937;53.594;10.034;2022-07-06T08:16:34;5.72;;;0.95;;
55037;SDS011;40937;53.594;10.034;2022-07-06T08:19:00;3.10;;;0.63;;
55037;SDS011;40937;53.594;10.034;2022-07-06T08:21:27;2.42;;;0.85;;
55037;SDS011;40937;53.594;10.034;2022-07-06T08:24:06;2.33;;;0.70;;
55037;SDS011;40937;53.594;10.034;2022-07-06T08:26:35;1.75;;;0.93;;
55037;SDS011;40937;53.594;10.034;2022-07-06T08:29:01;4.80;;;1.13;;
55037;SDS011;40937;53.594;10.034;2022-07-06T08:31:28;3.45;;;1.33;;
55037;SDS011;40937;53.594;10.034;2022-07-06T08:42:41;5.30;;;1.50;;
55037;SDS011;40937;53.594;10.034;2022-07-06T08:45:09;1.98;;;0.93;;
55037;SDS011;40937;53.594;10.034;2022-07-06T08:47:36;1.98;;;1.10;;
55037;SDS011;40937;53.594;10.034;2022-07-06T08:50:04;4.45;;;1.48;;
55037;SDS011;40937;53.594;10.034;2022-07-06T08:52:32;3.05;;;1.05;;
55037;SDS011;40937;53.594;10.034;2022-07-06T08:54:59;2.80;;;1.02;;
55037;SDS011;40937;53.594;10.034;2022-07-06T08:57:26;2.08;;;1.08;;
55037;SDS011;40937;53.594;10.034;2022-07-06T08:59:54;4.40;;;1.35;;
55037;SDS011;40937;53.594;10.034;2022-07-06T09:02:22;3.38;;;1.38;;
55037;SDS011;40937;53.594;10.034;2022-07-06T09:04:51;4.97;;;1.13;;
55037;SDS011;40937;53.594;10.034;2022-07-06T09:07:21;3.95;;;0.98;;
55037;SDS011;40937;53.594;10.034;2022-07-06T09:09:49;4.25;;;1.40;;
55037;SDS011;40937;53.594;10.034;2022-07-06T09:12:16;4.32;;;1.20;;
55037;SDS011;40937;53.594;10.034;2022-07-06T09:14:44;2.47;;;1.17;;
55037;SDS011;40937;53.594;10.034;2022-07-06T09:17:12;2.80;;;1.25;;
55037;SDS011;40937;53.594;10.034;2022-07-06T09:19:40;3.08;;;1.20;;
55037;SDS011;40937;53.594;10.034;2022-07-06T09:22:07;1.23;;;0.80;;
55037;SDS011;40937;53.594;10.034;2022-07-06T09:24:50;3.08;;;0.93;;
55037;SDS011;40937;53.594;10.034;2022-07-06T09:27:17;2.75;;;0.70;;
55037;SDS011;40937;53.594;10.034;2022-07-06T09:29:43;1.58;;;0.70;;
55037;SDS011;40937;53.594;10.034;2022-07-06T09:32:12;3.33;;;0.95;;
55037;SDS011;40937;53.594;10.034;2022-07-06T09:34:46;2.40;;;0.93;;
55037;SDS011;40937;53.594;10.034;2022-07-06T09:37:13;2.97;;;0.82;;
55037;SDS011;40937;53.594;10.034;2022-07-06T09:39:41;0.98;;;0.70;;
55037;SDS011;40937;53.594;10.034;2022-07-06T09:42:10;2.47;;;1.05;;
55037;SDS011;40937;53.594;10.034;2022-07-06T09:44:37;3.70;;;0.90;;
55037;SDS011;40937;53.594;10.034;2022-07-06T09:47:05;2.08;;;1.02;;
55037;SDS011;40937;53.594;10.034;2022-07-06T09:49:36;5.47;;;1.05;;
55037;SDS011;40937;53.594;10.034;2022-07-06T09:52:04;1.15;;;0.90;;
55037;SDS011;40937;53.594;10.034;2022-07-06T09:54:32;2.75;;;1.38;;
55037;SDS011;40937;53.594;10.034;2022-07-06T09:56:59;2.22;;;1.13;;
55037;SDS011;40937;53.594;10.034;2022-07-06T09:59:26;3.33;;;1.15;;
55037;SDS011;40937;53.594;10.034;2022-07-06T10:01:54;2.92;;;1.50;;
55037;SDS011;40937;53.594;10.034;2022-07-06T10:07:06;2.70;;;1.20;;
55037;SDS011;40937;53.594;10.034;2022-07-06T10:09:34;2.15;;;1.00;;
55037;SDS011;40937;53.594;10.034;2022-07-06T10:12:02;5.13;;;1.27;;
55037;SDS011;40937;53.594;10.034;2022-07-06T10:14:33;3.28;;;1.38;;
55037;SDS011;40937;53.594;10.034;2022-07-06T10:17:01;2.72;;;0.90;;
55037;SDS011;40937;53.594;10.034;2022-07-06T10:19:29;5.15;;;1.40;;
55037;SDS011;40937;53.594;10.034;2022-07-06T10:21:57;8.13;;;1.50;;
55037;SDS011;40937;53.594;10.034;2022-07-06T10:46:50;5.35;;;0.98;;
55037;SDS011;40937;53.594;10.034;2022-07-06T10:49:33;2.83;;;0.60;;
55037;SDS011;40937;53.594;10.034;2022-07-06T10:52:59;1.55;;;0.77;;
55037;SDS011;40937;53.594;10.034;2022-07-06T10:55:32;5.53;;;0.90;;
55037;SDS011;40937;53.594;10.034;2022-07-06T10:58:04;5.07;;;1.05;;
55037;SDS011;40937;53.594;10.034;2022-07-06T11:00:50;3.85;;;1.17;;
55037;SDS011;40937;53.594;10.034;2022-07-06T11:03:31;4.45;;;1.05;;
55037;SDS011;40937;53.594;10.034;2022-07-06T11:06:13;3.53;;;1.20;;
55037;SDS011;40937;53.594;10.034;2022-07-06T11:08:45;3.65;;;1.40;;
55037;SDS011;40937;53.594;10.034;2022-07-06T11:11:13;1.98;;;1.38;;
55037;SDS011;40937;53.594;10.034;2022-07-06T11:13:42;3.03;;;1.35;;
55037;SDS011;40937;53.594;10.034;2022-07-06T11:16:13;2.33;;;1.33;;
55037;SDS011;40937;53.594;10.034;2022-07-06T11:18:46;7.20;;;1.67;;
55037;SDS011;40937;53.594;10.034;2022-07-06T11:21:17;2.50;;;1.50;;
55037;SDS011;40937;53.594;10.034;2022-07-06T11:23:45;3.25;;;1.20;;
55037;SDS011;40937;53.594;10.034;2022-07-06T11:26:14;4.40;;;1.75;;
55037;SDS011;40937;53.594;10.034;2022-07-06T11:28:41;3.95;;;1.38;;
55037;SDS011;40937;53.594;10.034;2022-07-06T11:31:08;3.60;;;1.33;;
55037;SDS011;40937;53.594;10.034;2022-07-06T11:33:36;3.05;;;1.05;;
55037;SDS011;40937;53.594;10.034;2022-07-06T11:36:14;3.10;;;1.02;;
55037;SDS011;40937;53.594;10.034;2022-07-06T11:38:42;2.80;;;1.17;;
55037;SDS011;40937;53.594;10.034;2022-07-06T11:41:10;6.47;;;1.42;;
55037;SDS011;40937;53.594;10.034;2022-07-06T11:43:39;7.93;;;1.33;;
55037;SDS011;40937;53.594;10.034;2022-07-06T11:46:18;4.63;;;1.10;;
55037;SDS011;40937;53.594;10.034;2022-07-06T11:48:49;7.40;;;1.40;;
55037;SDS011;40937;53.594;10.034;2022-07-06T11:51:18;4.53;;;0.93;;
55037;SDS011;40937;53.594;10.034;2022-07-06T11:53:50;7.00;;;1.05;;
55037;SDS011;40937;53.594;10.034;2022-07-06T11:56:17;5.72;;;1.40;;
55037;SDS011;40937;53.594;10.034;2022-07-06T11:58:46;4.03;;;1.10;;
55037;SDS011;40937;53.594;10.034;2022-07-06T12:01:15;7.32;;;1.60;;
55037;SDS011;40937;53.594;10.034;2022-07-06T12:03:42;3.95;;;1.50;;
55037;SDS011;40937;53.594;10.034;2022-07-06T12:06:13;4.03;;;1.30;;
55037;SDS011;40937;53.594;10.034;2022-07-06T12:08:43;8.80;;;1.20;;
55037;SDS011;40937;53.594;10.034;2022-07-06T12:11:10;2.92;;;1.13;;
55037;SDS011;40937;53.594;10.034;2022-07-06T12:13:44;3.67;;;1.05;;
55037;SDS011;40937;53.594;10.034;2022-07-06T12:16:11;3.83;;;1.00;;
55037;SDS011;40937;53.594;10.034;2022-07-06T12:18:40;4.00;;;1.23;;
55037;SDS011;40937;53.594;10.034;2022-07-06T12:21:08;3.75;;;1.10;;
55037;SDS011;40937;53.594;10.034;2022-07-06T12:23:39;1.70;;;0.75;;
55037;SDS011;40937;53.594;10.034;2022-07-06T12:26:09;4.05;;;1.40;;
55037;SDS011;40937;53.594;10.034;2022-07-06T12:28:36;2.58;;;0.98;;
55037;SDS011;40937;53.594;10.034;2022-07-06T12:31:03;3.78;;;0.68;;
55037;SDS011;40937;53.594;10.034;2022-07-06T12:33:30;1.95;;;0.57;;
55037;SDS011;40937;53.594;10.034;2022-07-06T12:35:57;1.80;;;0.73;;
55037;SDS011;40937;53.594;10.034;2022-07-06T12:38:34;2.42;;;0.80;;
55037;SDS011;40937;53.594;10.034;2022-07-06T12:41:01;1.88;;;0.70;;
55037;SDS011;40937;53.594;10.034;2022-07-06T12:43:35;2.17;;;0.70;;
55037;SDS011;40937;53.594;10.034;2022-07-06T12:48:56;2.47;;;1.27;;
55037;SDS011;40937;53.594;10.034;2022-07-06T12:51:24;1.70;;;0.95;;
55037;SDS011;40937;53.594;10.034;2022-07-06T12:53:51;6.43;;;1.02;;
55037;SDS011;40937;53.594;10.034;2022-07-06T12:56:17;2.88;;;0.98;;
55037;SDS011;40937;53.594;10.034;2022-07-06T12:58:59;3.40;;;0.80;;
55037;SDS011;40937;53.594;10.034;2022-07-06T13:01:26;1.52;;;0.80;;
55037;SDS011;40937;53.594;10.034;2022-07-06T13:03:54;2.85;;;1.00;;
55037;SDS011;40937;53.594;10.034;2022-07-06T13:06:31;4.60;;;1.42;;
55037;SDS011;40937;53.594;10.034;2022-07-06T13:08:59;8.45;;;1.10;;
55037;SDS011;40937;53.594;10.034;2022-07-06T13:11:26;4.47;;;0.77;;
55037;SDS011;40937;53.594;10.034;2022-07-06T13:13:52;2.33;;;0.70;;
55037;SDS011;40937;53.594;10.034;2022-07-06T13:16:20;2.40;;;0.73;;
55037;SDS011;40937;53.594;10.034;2022-07-06T13:18:49;2.30;;;0.80;;
55037;SDS011;40937;53.594;10.034;2022-07-06T13:21:16;1.85;;;0.73;;
55037;SDS011;40937;53.594;10.034;2022-07-06T13:23:42;3.30;;;0.80;;
55037;SDS011;40937;53.594;10.034;2022-07-06T13:26:09;1.55;;;0.68;;
55037;SDS011;40937;53.594;10.034;2022-07-06T13:28:36;1.95;;;1.00;;
55037;SDS011;40937;53.594;10.034;2022-07-06T13:31:02;2.08;;;0.70;;
55037;SDS011;40937;53.594;10.034;2022-07-06T13:33:30;3.03;;;1.25;;
55037;SDS011;40937;53.594;10.034;2022-07-06T13:35:57;4.35;;;0.90;;
55037;SDS011;40937;53.594;10.034;2022-07-06T13:38:24;2.53;;;0.90;;
55037;SDS011;40937;53.594;10.034;2022-07-06T13:40:50;7.28;;;0.80;;
55037;SDS011;40937;53.594;10.034;2022-07-06T13:43:17;2.83;;;0.90;;
55037;SDS011;40937;53.594;10.034;2022-07-06T13:45:45;2.35;;;0.85;;
55037;SDS011;40937;53.594;10.034;2022-07-06T13:48:11;2.80;;;1.10;;
55037;SDS011;40937;53.594;10.034;2022-07-06T13:50:40;3.80;;;1.05;;
55037;SDS011;40937;53.594;10.034;2022-07-06T13:53:06;2.13;;;0.77;;
55037;SDS011;40937;53.594;10.034;2022-07-06T13:55:33;2.17;;;0.93;;
55037;SDS011;40937;53.594;10.034;2022-07-06T13:58:00;1.60;;;0.70;;
55037;SDS011;40937;53.594;10.034;2022-07-06T14:00:27;1.63;;;0.73;;
55037;SDS011;40937;53.594;10.034;2022-07-06T14:02:54;2.92;;;0.82;;
55037;SDS011;40937;53.594;10.034;2022-07-06T14:05:20;3.92;;;0.80;;
55037;SDS011;40937;53.594;10.034;2022-07-06T14:07:48;2.20;;;0.70;;
55037;SDS011;40937;53.594;10.034;2022-07-06T14:10:15;6.57;;;0.68;;
55037;SDS011;40937;53.594;10.034;2022-07-06T14:12:42;2.40;;;0.90;;
55037;SDS011;40937;53.594;10.034;2022-07-06T14:15:09;2.65;;;0.90;;
55037;SDS011;40937;53.594;10.034;2022-07-06T14:17:35;1.95;;;0.70;;
55037;SDS011;40937;53.594;10.034;2022-07-06T14:20:02;1.63;;;0.57;;
55037;SDS011;40937;53.594;10.034;2022-07-06T14:22:29;1.90;;;0.95;;
55037;SDS011;40937;53.594;10.034;2022-07-06T14:24:58;5.75;;;0.90;;
55037;SDS011;40937;53.594;10.034;2022-07-06T14:27:25;1.83;;;0.70;;
55037;SDS011;40937;53.594;10.034;2022-07-06T14:29:51;2.20;;;0.50;;
55037;SDS011;40937;53.594;10.034;2022-07-06T14:32:18;1.80;;;0.77;;
55037;SDS011;40937;53.594;10.034;2022-07-06T14:34:45;1.33;;;0.70;;
55037;SDS011;40937;53.594;10.034;2022-07-06T14:37:11;6.35;;;0.65;;
55037;SDS011;40937;53.594;10.034;2022-07-06T14:39:38;4.95;;;0.98;;
55037;SDS011;40937;53.594;10.034;2022-07-06T14:42:06;3.95;;;0.93;;
55037;SDS011;40937;53.594;10.034;2022-07-06T14:44:33;1.10;;;0.90;;
55037;SDS011;40937;53.594;10.034;2022-07-06T14:47:00;0.90;;;0.57;;
55037;SDS011;40937;53.594;10.034;2022-07-06T14:49:27;4.15;;;0.80;;
55037;SDS011;40937;53.594;10.034;2022-07-06T14:51:53;2.55;;;0.85;;
55037;SDS011;40937;53.594;10.034;2022-07-06T14:54:21;4.15;;;1.10;;
55037;SDS011;40937;53.594;10.034;2022-07-06T14:56:48;1.90;;;0.80;;
55037;SDS011;40937;53.594;10.034;2022-07-06T14:59:17;1.20;;;0.55;;
55037;SDS011;40937;53.594;10.034;2022-07-06T15:01:45;5.15;;;1.30;;
55037;SDS011;40937;53.594;10.034;2022-07-06T15:04:11;2.72;;;1.05;;
55037;SDS011;40937;53.594;10.034;2022-07-06T15:06:38;4.35;;;0.70;;
55037;SDS011;40937;53.594;10.034;2022-07-06T15:09:05;2.92;;;0.63;;
55037;SDS011;40937;53.594;10.034;2022-07-06T15:11:31;4.90;;;1.10;;
55037;SDS011;40937;53.594;10.034;2022-07-06T15:13:58;3.67;;;0.90;;
55037;SDS011;40937;53.594;10.034;2022-07-06T15:16:26;1.35;;;0.75;;
55037;SDS011;40937;53.594;10.034;2022-07-06T15:18:53;3.30;;;1.10;;
55037;SDS011;40937;53.594;10.034;2022-07-06T15:21:20;3.58;;;1.00;;
55037;SDS011;40937;53.594;10.034;2022-07-06T15:23:46;1.88;;;0.70;;
55037;SDS011;40937;53.594;10.034;2022-07-06T15:26:13;3.88;;;0.68;;
55037;SDS011;40937;53.594;10.034;2022-07-06T15:28:40;2.45;;;1.10;;
55037;SDS011;40937;53.594;10.034;2022-07-06T15:31:06;5.43;;;1.30;;